Terminal Aerodrome Forecast
Issued by NWS

Home | Current Version | Previous Version | Text Only | Print | Product List | Glossary On
Versions: 1 2 3 4 5 6 7 8 9 10 11 12 13
529
FTUS45 KTFX 221736
TAFCTB
TAF
KCTB 221736Z 2218/2318 01008KT 2SM BR BKN002
      TEMPO 2218/2220 3/4SM BR OVC002
     FM222000 VRB05KT 3SM BR SCT002 BKN010
     FM222300 VRB05KT 5SM BR BKN015
     FM230600 06008KT 1SM -SN BR BKN008=

USA.gov is the U.S. government's official web portal to all federal, state and local government web resources and services.